Huvudsida
METAR-TAF:

METAR-TAF

Flygplatser :

Drottning Alias internationella flygplats

Amman-Queen Alia, Jordanien

latitud: 31-40N, longitud: 035-58E, höjd: 721 m

Aktuellt väderrapport

Denna rapport gjordes för 21 minuter sedan, klockan 14:00 UTC
Vind 14 kt från nordväst
Temperatur 39°C
Fuktighet 20%
Tryck 1012 hPa
Sikt: 7000 m

METAR: OJAI 251400Z 31014KT 7000 NSC 39/12 Q1012 NOSIG

Tid: 17:21 (14:21 UTC)

Väderprognos

Denna rapport gjordes för 3 timmar och 21 minuter sedan, klockan 11:00 UTC
Prognos gäller från 25 kl. 12 UTC till 26 kl. 18 UTC
Vind 10 kt från nord/nordost
Sikt: 6000 m

TAF: OJAI 251100Z 2512/2618 02010KT 6000 NSC

Aktuella väderrapporter och prognoser från 4000 flygplatser (METAR- och TAF-rapporter).

De tillgängliga stationerna syns som gula och röda prickar på kartan.

För musen över prickarna för att se namnen på stationerna.

Klicka sedan för att få väderrapporter och prognoser.

För att ändra kartan: Klicka på de gröna knapparna med ett svart kors på för att zooma in; den gröna knappen med ett streck på för att zooma ut; eller på de gröna pilarna för angränsande kartor.


METAR-TAF: